createdAt,value
2023-02-18T00:00:31.342Z,79.20
2023-02-18T00:02:58.458Z,78.50
2023-02-18T00:05:25.549Z,79.10
2023-02-18T00:07:53.461Z,78.40
2023-02-18T00:10:20.682Z,78.40
2023-02-18T00:12:47.841Z,78.90
2023-02-18T00:15:15.003Z,78.70
2023-02-18T00:17:42.151Z,78.70
2023-02-18T00:20:09.588Z,78.10
2023-02-18T00:22:36.688Z,77.90
2023-02-18T00:25:03.960Z,78.50
2023-02-18T00:27:31.048Z,78.00
2023-02-18T00:29:59.203Z,77.80
2023-02-18T00:32:26.406Z,78.10
2023-02-18T00:34:54.082Z,77.90
2023-02-18T00:37:21.225Z,77.40
2023-02-18T00:39:48.372Z,77.30
2023-02-18T00:42:15.551Z,77.60
2023-02-18T00:44:42.693Z,77.50
2023-02-18T00:47:09.827Z,77.50
2023-02-18T00:49:37.098Z,77.20
2023-02-18T00:52:04.667Z,77.00
2023-02-18T00:54:31.774Z,77.20
2023-02-18T00:56:58.849Z,76.40
2023-02-18T00:59:26.046Z,76.10
2023-02-18T01:01:53.179Z,76.30
2023-02-18T01:04:20.367Z,76.50
2023-02-18T01:06:47.538Z,76.40
2023-02-18T01:09:14.716Z,76.30
2023-02-18T01:11:41.904Z,76.00
2023-02-18T01:14:08.972Z,76.40
2023-02-18T01:16:36.171Z,75.90
2023-02-18T01:19:03.385Z,76.00
2023-02-18T01:21:30.575Z,76.10
2023-02-18T01:23:58.352Z,75.40
2023-02-18T01:26:25.732Z,75.60
2023-02-18T01:28:52.828Z,75.30
2023-02-18T01:31:20.053Z,75.80
2023-02-18T01:33:47.225Z,75.50
2023-02-18T01:36:14.438Z,75.60
2023-02-18T01:38:41.805Z,75.40
2023-02-18T01:41:09.437Z,75.50
2023-02-18T01:43:38.879Z,75.20
2023-02-18T01:46:14.603Z,75.00
2023-02-18T01:48:44.447Z,75.00
2023-02-18T01:51:16.357Z,75.00
2023-02-18T01:53:54.250Z,75.30
2023-02-18T01:56:27.934Z,75.00
2023-02-18T01:58:57.519Z,75.20
2023-02-18T02:01:26.702Z,75.00
2023-02-18T02:03:54.273Z,75.20
2023-02-18T02:06:23.111Z,75.30
2023-02-18T02:08:52.699Z,74.70
2023-02-18T02:11:51.299Z,74.70
2023-02-18T02:14:41.396Z,74.80
2023-02-18T02:17:31.318Z,74.80
2023-02-18T02:20:33.544Z,74.70
2023-02-18T02:23:06.699Z,74.70
2023-02-18T02:25:49.086Z,74.70
2023-02-18T02:28:22.161Z,74.70
2023-02-18T02:31:17.017Z,74.50
2023-02-18T02:34:01.546Z,74.70
2023-02-18T02:36:47.914Z,74.80
2023-02-18T02:39:38.056Z,74.70
2023-02-18T02:42:23.219Z,74.70
2023-02-18T02:45:18.457Z,74.70
2023-02-18T02:47:54.787Z,74.70
2023-02-18T02:50:46.373Z,74.90
2023-02-18T02:53:27.565Z,75.00
2023-02-18T02:55:56.260Z,74.80
2023-02-18T02:58:23.568Z,74.50
2023-02-18T03:01:05.146Z,74.80
2023-02-18T03:04:00.625Z,74.90
2023-02-18T03:06:35.312Z,74.70
2023-02-18T03:09:16.763Z,75.30
2023-02-18T03:11:59.183Z,74.40
2023-02-18T03:14:41.199Z,74.40
2023-02-18T03:17:18.685Z,74.00
2023-02-18T03:19:55.763Z,73.50
2023-02-18T03:22:29.063Z,73.50
2023-02-18T03:24:58.413Z,73.40
2023-02-18T03:27:33.523Z,73.40
2023-02-18T03:30:06.940Z,73.40
2023-02-18T03:32:35.509Z,73.40
2023-02-18T03:35:09.018Z,73.40
2023-02-18T03:37:41.850Z,73.30
2023-02-18T03:40:11.240Z,73.50
2023-02-18T03:42:38.533Z,73.50
2023-02-18T03:45:05.791Z,73.40
2023-02-18T03:47:33.331Z,73.40
2023-02-18T03:50:00.452Z,73.40
2023-02-18T03:52:27.569Z,73.30
2023-02-18T03:54:54.672Z,73.50
2023-02-18T03:57:21.736Z,73.60
2023-02-18T03:59:48.814Z,73.50
2023-02-18T04:02:15.921Z,73.00
2023-02-18T04:04:43.111Z,73.20
2023-02-18T04:07:10.205Z,73.30
2023-02-18T04:09:37.272Z,73.40
2023-02-18T04:12:04.517Z,73.20
2023-02-18T04:14:31.692Z,73.30
2023-02-18T04:16:58.834Z,73.30
2023-02-18T04:19:25.957Z,73.00
2023-02-18T04:21:53.123Z,73.00
2023-02-18T04:24:20.202Z,73.20
2023-02-18T04:26:47.261Z,72.60
2023-02-18T04:29:14.329Z,73.30
2023-02-18T04:31:41.502Z,73.00
2023-02-18T04:34:08.720Z,73.00
2023-02-18T04:36:35.909Z,73.20
2023-02-18T04:39:03.189Z,73.10
2023-02-18T04:41:30.662Z,73.20
2023-02-18T04:43:59.637Z,73.40
2023-02-18T04:46:26.795Z,73.40
2023-02-18T04:48:53.970Z,73.20
2023-02-18T04:51:21.388Z,73.60
2023-02-18T04:53:48.680Z,73.90
2023-02-18T04:56:15.853Z,73.90
2023-02-18T04:58:42.930Z,74.40
2023-02-18T05:01:10.507Z,74.90
2023-02-18T05:03:37.653Z,75.60
2023-02-18T05:06:05.062Z,75.70
2023-02-18T05:08:32.252Z,75.20
2023-02-18T05:10:59.354Z,75.50
2023-02-18T05:13:26.498Z,77.30
2023-02-18T05:15:53.888Z,77.20
2023-02-18T05:18:20.962Z,78.60
2023-02-18T05:20:48.181Z,82.10
2023-02-18T05:23:15.291Z,82.40
2023-02-18T05:25:42.419Z,81.80
2023-02-18T05:28:09.607Z,81.10
2023-02-18T05:30:36.861Z,85.10
2023-02-18T05:33:04.080Z,84.10
2023-02-18T05:35:31.427Z,82.70
2023-02-18T05:37:58.494Z,84.80
2023-02-18T05:40:25.646Z,84.00
2023-02-18T05:42:52.736Z,83.40
2023-02-18T05:45:19.874Z,82.70
2023-02-18T05:47:46.944Z,83.90
2023-02-18T05:50:14.204Z,84.10
2023-02-18T05:52:51.453Z,86.60
2023-02-18T05:55:18.822Z,86.10
2023-02-18T05:57:45.904Z,84.70
2023-02-18T06:00:13.606Z,84.70
2023-02-18T06:02:40.825Z,88.40
2023-02-18T06:05:08.499Z,88.00
2023-02-18T06:07:35.874Z,86.90
2023-02-18T06:10:03.537Z,86.70
2023-02-18T06:12:30.674Z,86.20
2023-02-18T06:14:57.784Z,85.90
2023-02-18T06:17:24.882Z,85.70
2023-02-18T06:19:52.045Z,85.80
2023-02-18T06:22:19.189Z,86.50
2023-02-18T06:24:46.383Z,85.80
2023-02-18T06:27:13.468Z,86.30
2023-02-18T06:29:40.577Z,86.30
2023-02-18T06:32:07.792Z,87.10
2023-02-18T06:34:35.006Z,87.50
2023-02-18T06:37:02.096Z,86.90
2023-02-18T06:39:29.327Z,86.70
2023-02-18T06:41:56.420Z,86.60
2023-02-18T06:44:23.516Z,86.60
2023-02-18T06:46:50.714Z,86.50
2023-02-18T06:49:17.839Z,86.30
2023-02-18T06:51:44.970Z,86.30
2023-02-18T06:54:12.133Z,85.90
2023-02-18T06:56:39.286Z,85.90
2023-02-18T06:59:06.501Z,85.80
2023-02-18T07:01:33.659Z,85.90
2023-02-18T07:04:00.836Z,86.50
2023-02-18T07:06:27.964Z,86.90
2023-02-18T07:08:55.081Z,88.10
2023-02-18T07:11:22.223Z,88.20
2023-02-18T07:13:49.327Z,88.30
2023-02-18T07:16:16.489Z,87.60
2023-02-18T07:18:43.564Z,87.30
2023-02-18T07:21:10.696Z,87.40
2023-02-18T07:23:38.447Z,87.30
2023-02-18T07:26:11.855Z,86.90
2023-02-18T07:28:39.602Z,86.70
2023-02-18T07:31:07.557Z,86.60
2023-02-18T07:33:34.881Z,86.60
2023-02-18T07:36:03.112Z,86.50
2023-02-18T07:38:30.386Z,86.10
2023-02-18T07:41:00.341Z,86.10
2023-02-18T07:43:27.504Z,86.10
2023-02-18T07:45:54.824Z,86.00
2023-02-18T07:48:21.971Z,86.00
2023-02-18T07:50:49.202Z,85.90
2023-02-18T07:53:17.195Z,85.90
2023-02-18T07:55:50.437Z,85.80
2023-02-18T07:58:27.094Z,85.70
2023-02-18T08:00:55.106Z,85.70
2023-02-18T08:03:24.536Z,85.70
2023-02-18T08:05:52.735Z,85.30
2023-02-18T08:08:22.813Z,85.40
2023-02-18T08:10:51.331Z,85.20
2023-02-18T08:13:18.564Z,85.10
2023-02-18T08:15:45.965Z,85.20
2023-02-18T08:18:23.568Z,85.00
2023-02-18T08:20:51.887Z,85.10
2023-02-18T08:23:21.244Z,84.80
2023-02-18T08:25:53.665Z,84.90
2023-02-18T08:28:22.548Z,84.80
2023-02-18T08:30:51.856Z,84.60
2023-02-18T08:33:20.034Z,84.40
2023-02-18T08:35:48.871Z,84.70
2023-02-18T08:38:15.979Z,84.80
2023-02-18T08:40:43.152Z,84.60
2023-02-18T08:43:11.024Z,83.90
2023-02-18T08:45:39.551Z,84.10
2023-02-18T08:48:16.116Z,83.80
2023-02-18T08:50:46.125Z,82.90
2023-02-18T08:53:13.269Z,82.90
2023-02-18T08:55:41.194Z,82.30
2023-02-18T08:58:08.455Z,81.40
2023-02-18T09:00:36.716Z,79.00
2023-02-18T09:03:04.289Z,79.40
2023-02-18T09:05:31.425Z,80.40
2023-02-18T09:07:58.478Z,80.10
2023-02-18T09:10:25.698Z,79.20
2023-02-18T09:12:52.853Z,79.70
2023-02-18T09:15:20.110Z,79.10
2023-02-18T09:17:47.256Z,77.40
2023-02-18T09:20:14.506Z,78.70
2023-02-18T09:22:41.716Z,79.00
2023-02-18T09:25:08.852Z,79.20
2023-02-18T09:27:36.041Z,77.90
2023-02-18T09:30:03.984Z,78.60
2023-02-18T09:32:35.431Z,77.40
2023-02-18T09:35:04.759Z,77.30
2023-02-18T09:37:31.867Z,77.50
2023-02-18T09:40:00.192Z,77.50
2023-02-18T09:42:32.971Z,77.30
2023-02-18T09:45:07.009Z,77.60
2023-02-18T09:47:43.322Z,76.10
2023-02-18T09:50:23.651Z,76.00
2023-02-18T09:52:50.944Z,76.90
2023-02-18T09:55:30.225Z,76.30
2023-02-18T09:58:22.532Z,75.30
2023-02-18T10:00:54.333Z,75.20
2023-02-18T10:03:24.375Z,75.30
2023-02-18T10:05:59.088Z,74.30
2023-02-18T10:08:29.549Z,73.50
2023-02-18T10:10:56.968Z,75.00
2023-02-18T10:13:30.142Z,73.10
2023-02-18T10:15:57.400Z,74.50
2023-02-18T10:21:10.282Z,70.60
2023-02-18T10:23:41.635Z,69.90
2023-02-18T10:26:15.783Z,69.60
2023-02-18T10:28:43.495Z,69.60
2023-02-18T10:31:15.407Z,71.10
2023-02-18T10:33:48.149Z,69.70
2023-02-18T10:36:23.031Z,70.50
2023-02-18T10:38:56.432Z,68.50
2023-02-18T10:41:47.658Z,67.40
2023-02-18T10:44:41.786Z,67.20
2023-02-18T10:47:24.496Z,68.50
2023-02-18T10:50:04.789Z,66.80
2023-02-18T10:52:38.672Z,67.20
2023-02-18T10:55:10.383Z,68.10
2023-02-18T10:57:49.516Z,67.80
2023-02-18T11:00:24.158Z,65.90
2023-02-18T11:03:19.240Z,65.80
2023-02-18T11:05:48.870Z,65.90
2023-02-18T11:08:42.586Z,64.40
2023-02-18T11:11:16.825Z,65.00
2023-02-18T11:13:44.086Z,64.90
2023-02-18T11:16:12.613Z,64.30
2023-02-18T11:18:46.689Z,64.20
2023-02-18T11:21:35.236Z,63.80
2023-02-18T11:24:16.675Z,63.90
2023-02-18T11:26:46.901Z,64.00
2023-02-18T11:29:23.115Z,64.50
2023-02-18T11:31:53.735Z,62.60
2023-02-18T11:34:23.953Z,62.60
2023-02-18T11:36:52.530Z,63.50
2023-02-18T11:39:28.387Z,62.70
2023-02-18T11:42:04.108Z,63.90
2023-02-18T11:44:42.872Z,62.70
2023-02-18T11:47:12.688Z,62.50
2023-02-18T11:49:45.109Z,62.50
2023-02-18T11:52:20.300Z,62.40
2023-02-18T11:55:04.842Z,62.50
2023-02-18T11:57:35.583Z,61.90
2023-02-18T12:00:04.999Z,61.90
2023-02-18T12:02:38.275Z,62.40
2023-02-18T12:05:27.605Z,61.90
2023-02-18T12:08:25.638Z,61.80
2023-02-18T12:11:02.174Z,61.70
2023-02-18T12:13:37.188Z,61.60
2023-02-18T12:16:39.612Z,63.20
2023-02-18T12:19:41.171Z,63.00
2023-02-18T12:22:22.471Z,62.60
2023-02-18T12:25:11.418Z,62.90
2023-02-18T12:27:47.067Z,62.30
2023-02-18T12:30:23.268Z,61.60
2023-02-18T12:33:13.120Z,61.40
2023-02-18T12:35:52.105Z,62.40
2023-02-18T12:38:42.890Z,61.80
2023-02-18T12:41:34.904Z,61.00
2023-02-18T12:44:23.876Z,60.40
2023-02-18T12:47:14.296Z,60.70
2023-02-18T12:50:02.753Z,60.70
2023-02-18T12:52:49.193Z,61.00
2023-02-18T12:55:31.574Z,60.30
2023-02-18T12:58:23.031Z,60.40
2023-02-18T13:01:27.465Z,60.20
2023-02-18T13:04:24.580Z,59.60
2023-02-18T13:07:12.705Z,59.30
2023-02-18T13:09:46.674Z,59.30
2023-02-18T13:12:17.975Z,58.20
2023-02-18T13:15:13.754Z,58.00
2023-02-18T13:17:42.512Z,57.40
2023-02-18T13:20:26.400Z,58.30
2023-02-18T13:22:54.130Z,57.50
2023-02-18T13:25:21.963Z,56.40
2023-02-18T13:28:13.876Z,55.80
2023-02-18T13:31:11.146Z,55.50
2023-02-18T13:33:47.779Z,55.30
2023-02-18T13:36:33.197Z,55.70
2023-02-18T13:39:09.244Z,55.50
2023-02-18T13:41:38.939Z,55.60
2023-02-18T13:44:21.401Z,55.20
2023-02-18T13:46:49.953Z,55.30
2023-02-18T13:49:22.845Z,55.60
2023-02-18T13:51:51.965Z,55.30
2023-02-18T13:54:26.778Z,55.80
2023-02-18T13:56:57.967Z,55.30
2023-02-18T13:59:45.370Z,55.00
2023-02-18T14:02:34.219Z,55.70
2023-02-18T14:05:07.489Z,54.60
2023-02-18T14:07:39.411Z,55.30
2023-02-18T14:10:18.557Z,54.90
2023-02-18T14:12:57.918Z,54.70
2023-02-18T14:15:25.171Z,54.70
2023-02-18T14:18:13.867Z,54.20
2023-02-18T14:20:41.012Z,54.70
2023-02-18T14:23:20.324Z,54.70
2023-02-18T14:25:57.759Z,54.60
2023-02-18T14:28:33.808Z,55.00
2023-02-18T14:31:13.485Z,54.40
2023-02-18T14:33:44.821Z,54.60
2023-02-18T14:36:36.371Z,54.70
2023-02-18T14:39:35.900Z,54.80
2023-02-18T14:42:15.649Z,55.00
2023-02-18T14:45:20.111Z,55.00
2023-02-18T14:47:47.341Z,54.70
2023-02-18T14:50:20.166Z,54.70
2023-02-18T14:52:54.380Z,54.30
2023-02-18T14:55:26.133Z,54.20
2023-02-18T14:58:00.282Z,54.10
2023-02-18T15:00:32.340Z,54.30
2023-02-18T15:03:01.704Z,54.10
2023-02-18T15:05:37.143Z,54.30
2023-02-18T15:08:13.553Z,53.90
2023-02-18T15:10:48.227Z,54.20
2023-02-18T15:13:20.300Z,54.20
2023-02-18T15:15:55.473Z,54.30
2023-02-18T15:18:40.466Z,54.60
2023-02-18T15:21:10.404Z,54.70
2023-02-18T15:23:40.883Z,54.90
2023-02-18T15:26:14.657Z,54.90
2023-02-18T15:29:21.590Z,55.30
2023-02-18T15:31:49.680Z,55.40
2023-02-18T15:34:31.723Z,55.60
2023-02-18T15:37:01.114Z,55.70
2023-02-18T15:39:29.098Z,55.90
2023-02-18T15:42:00.002Z,56.00
2023-02-18T15:44:33.275Z,56.20
2023-02-18T15:47:03.154Z,56.30
2023-02-18T15:49:30.918Z,56.50
2023-02-18T15:52:00.292Z,56.80
2023-02-18T15:54:27.790Z,56.80
2023-02-18T15:56:57.291Z,56.70
2023-02-18T15:59:28.450Z,56.90
2023-02-18T16:02:21.853Z,57.00
2023-02-18T16:04:54.947Z,57.10
2023-02-18T16:07:37.916Z,57.20
2023-02-18T16:10:23.859Z,57.30
2023-02-18T16:12:54.731Z,57.40
2023-02-18T16:15:31.801Z,57.50
2023-02-18T16:18:01.898Z,57.70
2023-02-18T16:20:36.172Z,57.80
2023-02-18T16:23:12.333Z,57.80
2023-02-18T16:25:42.584Z,58.00
2023-02-18T16:28:12.658Z,58.00
2023-02-18T16:30:43.634Z,58.00
2023-02-18T16:33:11.514Z,58.00
2023-02-18T16:35:49.000Z,58.10
2023-02-18T16:38:19.916Z,58.30
2023-02-18T16:40:47.517Z,58.40
2023-02-18T16:43:20.099Z,58.50
2023-02-18T16:45:57.489Z,58.50
2023-02-18T16:48:30.160Z,58.50
2023-02-18T16:51:00.608Z,58.50
2023-02-18T16:53:27.911Z,58.50
2023-02-18T16:55:55.525Z,59.10
2023-02-18T16:58:22.760Z,58.60
2023-02-18T17:00:54.737Z,58.80
2023-02-18T17:03:22.205Z,58.90
2023-02-18T17:05:49.423Z,58.90
2023-02-18T17:08:25.404Z,58.90
2023-02-18T17:10:55.367Z,59.00
2023-02-18T17:13:27.788Z,59.10
2023-02-18T17:15:57.121Z,59.20
2023-02-18T17:18:24.934Z,59.20
2023-02-18T17:20:53.589Z,59.30
2023-02-18T17:23:24.918Z,59.10
2023-02-18T17:25:53.934Z,59.30
2023-02-18T17:28:21.197Z,59.30
2023-02-18T17:30:53.123Z,59.40
2023-02-18T17:33:20.310Z,59.70
2023-02-18T17:35:47.596Z,59.60
2023-02-18T17:38:17.926Z,59.80
2023-02-18T17:40:45.771Z,60.00
2023-02-18T17:43:15.359Z,59.90
2023-02-18T17:45:54.992Z,59.90
2023-02-18T17:48:22.305Z,60.10
2023-02-18T17:50:49.806Z,60.40
2023-02-18T17:53:17.765Z,60.40
2023-02-18T17:55:46.700Z,60.30
2023-02-18T17:58:14.760Z,60.40
2023-02-18T18:00:51.345Z,60.40
2023-02-18T18:03:19.129Z,60.40
2023-02-18T18:05:49.265Z,60.40
2023-02-18T18:08:16.704Z,60.70
2023-02-18T18:10:55.402Z,60.80
2023-02-18T18:13:25.235Z,60.70
2023-02-18T18:15:52.464Z,61.80
2023-02-18T18:18:20.489Z,60.90
2023-02-18T18:20:51.800Z,60.90
2023-02-18T18:23:21.403Z,61.10
2023-02-18T18:25:54.026Z,60.70
2023-02-18T18:28:21.160Z,60.70
2023-02-18T18:30:51.015Z,60.50
2023-02-18T18:33:24.999Z,59.80
2023-02-18T18:35:54.803Z,59.50
2023-02-18T18:38:23.762Z,58.40
2023-02-18T18:40:52.103Z,59.20
2023-02-18T18:43:33.454Z,58.90
2023-02-18T18:46:00.959Z,58.60
2023-02-18T18:48:28.254Z,57.90
2023-02-18T18:50:59.165Z,57.00
2023-02-18T18:53:29.950Z,56.60
2023-02-18T18:56:00.479Z,56.10
2023-02-18T18:58:27.769Z,56.10
2023-02-18T19:00:57.822Z,56.10
2023-02-18T19:03:27.417Z,56.10
2023-02-18T19:05:55.152Z,56.10
2023-02-18T19:08:22.705Z,55.90
2023-02-18T19:10:56.124Z,56.10
2023-02-18T19:13:28.856Z,56.40
2023-02-18T19:16:07.463Z,56.50
2023-02-18T19:18:35.420Z,56.20
2023-02-18T19:21:03.551Z,56.30
2023-02-18T19:23:31.408Z,56.50
2023-02-18T19:25:59.231Z,56.40
2023-02-18T19:28:27.354Z,56.50
2023-02-18T19:30:54.749Z,56.60
2023-02-18T19:33:22.033Z,56.70
2023-02-18T19:35:49.475Z,56.70
2023-02-18T19:38:18.395Z,56.70
2023-02-18T19:40:46.506Z,56.80
2023-02-18T19:43:14.227Z,56.90
2023-02-18T19:45:43.782Z,56.90
2023-02-18T19:48:11.960Z,57.00
2023-02-18T19:50:41.776Z,57.70
2023-02-18T19:53:09.618Z,57.20
2023-02-18T19:55:36.861Z,57.30
2023-02-18T19:58:04.197Z,57.40
2023-02-18T20:00:31.424Z,57.50
2023-02-18T20:02:58.602Z,57.50
2023-02-18T20:05:25.998Z,57.70
2023-02-18T20:07:53.189Z,57.70
2023-02-18T20:10:20.494Z,57.80
2023-02-18T20:12:52.968Z,57.90
2023-02-18T20:15:20.278Z,58.00
2023-02-18T20:17:47.403Z,58.20
2023-02-18T20:20:14.621Z,58.10
2023-02-18T20:22:41.800Z,58.30
2023-02-18T20:25:09.491Z,58.30
2023-02-18T20:27:39.759Z,58.70
2023-02-18T20:30:12.668Z,58.50
2023-02-18T20:32:39.836Z,58.70
2023-02-18T20:35:07.613Z,59.10
2023-02-18T20:37:34.690Z,59.00
2023-02-18T20:40:01.796Z,59.10
2023-02-18T20:42:28.873Z,59.30
2023-02-18T20:44:55.948Z,59.40
2023-02-18T20:47:23.102Z,59.50
2023-02-18T20:49:50.210Z,59.70
2023-02-18T20:52:17.318Z,59.80
2023-02-18T20:54:44.458Z,59.90
2023-02-18T20:57:11.622Z,60.50
2023-02-18T20:59:38.774Z,60.90
2023-02-18T21:02:05.968Z,61.10
2023-02-18T21:04:33.202Z,61.10
2023-02-18T21:07:02.804Z,61.00
2023-02-18T21:09:30.061Z,61.80
2023-02-18T21:11:57.317Z,63.30
2023-02-18T21:14:25.164Z,62.80
2023-02-18T21:16:53.002Z,62.90
2023-02-18T21:19:20.169Z,63.20
2023-02-18T21:21:47.642Z,64.40
2023-02-18T21:24:15.594Z,63.60
2023-02-18T21:26:42.868Z,64.30
2023-02-18T21:29:12.040Z,64.90
2023-02-18T21:31:41.763Z,64.70
2023-02-18T21:34:12.823Z,64.60
2023-02-18T21:36:43.362Z,64.50
2023-02-18T21:39:11.624Z,64.60
2023-02-18T21:41:40.914Z,64.80
2023-02-18T21:44:09.449Z,64.80
2023-02-18T21:46:37.247Z,65.50
2023-02-18T21:49:06.046Z,65.20
2023-02-18T21:52:08.693Z,66.10
2023-02-18T21:54:44.685Z,65.80
2023-02-18T21:57:19.833Z,65.80
2023-02-18T21:59:46.944Z,66.00
2023-02-18T22:02:20.587Z,66.60
2023-02-18T22:04:48.929Z,67.00
2023-02-18T22:07:17.672Z,66.40
2023-02-18T22:09:48.033Z,67.10
2023-02-18T22:12:18.354Z,67.10
2023-02-18T22:14:45.541Z,67.80
2023-02-18T22:17:13.450Z,67.10
2023-02-18T22:19:40.886Z,67.50
2023-02-18T22:22:08.317Z,66.90
2023-02-18T22:24:35.690Z,66.80
2023-02-18T22:27:02.848Z,68.90
2023-02-18T22:29:31.687Z,67.80
2023-02-18T22:31:59.067Z,67.70
2023-02-18T22:34:26.550Z,68.30
2023-02-18T22:36:53.657Z,68.30
2023-02-18T22:39:20.836Z,68.70
2023-02-18T22:41:48.002Z,68.30
2023-02-18T22:44:16.543Z,69.50
2023-02-18T22:46:44.134Z,68.90
2023-02-18T22:49:12.183Z,69.60
2023-02-18T22:51:41.591Z,69.50
2023-02-18T22:54:14.642Z,68.90
2023-02-18T22:56:41.812Z,69.80
2023-02-18T22:59:10.706Z,70.20
2023-02-18T23:01:41.033Z,69.90
2023-02-18T23:04:11.401Z,70.00
2023-02-18T23:06:41.862Z,69.60
2023-02-18T23:09:12.591Z,69.60
2023-02-18T23:11:39.729Z,69.30
2023-02-18T23:14:19.209Z,69.60
2023-02-18T23:17:13.056Z,69.50
2023-02-18T23:19:42.898Z,70.10
2023-02-18T23:22:12.119Z,69.60
2023-02-18T23:24:42.369Z,69.90
2023-02-18T23:27:11.725Z,70.50
2023-02-18T23:29:39.331Z,70.40
2023-02-18T23:32:07.257Z,70.40
2023-02-18T23:34:34.927Z,69.90
2023-02-18T23:37:02.102Z,70.30
2023-02-18T23:39:29.713Z,70.60
2023-02-18T23:41:57.246Z,70.00
2023-02-18T23:44:26.288Z,70.60
2023-02-18T23:46:53.525Z,70.80
2023-02-18T23:49:25.445Z,71.00
2023-02-18T23:51:54.545Z,70.90
2023-02-18T23:54:22.342Z,70.40
2023-02-18T23:56:49.616Z,70.40
2023-02-18T23:59:16.884Z,70.50
